Time;durP1;ratioP1;P1;durP2;ratioP2;P2;SDS_P1;SDS_P2;PMS_P1;PMS_P2;Temp;Humidity;BMP_temperature;BMP_pressure;BME280_temperature;BME280_humidity;BME280_pressure;Samples;Min_cycle;Max_cycle;Signal;HPM_P1;HPM_P2
2022/06/08 00:00:10;;;;;;;4.78;1.70;;;;;;;17.96;71.27;100279.03;4202911;28;20078;-64
2022/06/08 00:02:15;;;;;;;5.18;1.67;;;;;;;17.95;71.49;100266.75;4205083;28;20436;-64
2022/06/08 00:04:22;;;;;;;5.13;2.70;;;;;;;17.97;71.35;100270.22;4196819;28;20036;-64
2022/06/08 00:06:25;;;;;;;3.90;2.10;;;;;;;18.00;71.14;100271.94;4201445;28;20384;-64
2022/06/08 00:08:28;;;;;;;7.22;2.08;;;;;;;18.00;70.99;100269.28;4207947;28;20046;-64
2022/06/08 00:10:34;;;;;;;4.15;1.60;;;;;;;17.99;70.89;100267.56;4202766;28;20413;-64
2022/06/08 00:12:37;;;;;;;8.00;2.05;;;;;;;17.93;70.77;100263.28;4207476;28;20544;-64
2022/06/08 00:14:41;;;;;;;4.13;1.75;;;;;;;17.89;70.89;100262.44;4207608;28;20040;-65
2022/06/08 00:16:44;;;;;;;5.40;1.95;;;;;;;17.87;70.76;100259.00;4207736;28;20028;-64
2022/06/08 00:18:49;;;;;;;7.00;2.53;;;;;;;17.78;70.87;100265.28;4199642;28;20045;-64
2022/06/08 00:20:52;;;;;;;4.38;1.98;;;;;;;17.75;70.72;100257.44;4208155;28;20377;-65
2022/06/08 00:22:55;;;;;;;2.80;1.90;;;;;;;17.72;70.62;100252.25;4209305;28;20032;-65
2022/06/08 00:24:58;;;;;;;4.45;1.95;;;;;;;17.74;70.80;100247.84;4203301;28;20064;-64
2022/06/08 00:27:01;;;;;;;4.10;2.20;;;;;;;17.72;70.71;100252.25;4210795;28;20545;-65
2022/06/08 00:29:05;;;;;;;3.80;2.00;;;;;;;17.71;70.70;100253.16;4206512;28;20044;-65
2022/06/08 00:31:09;;;;;;;2.03;1.83;;;;;;;17.69;70.75;100249.66;4199450;28;20113;-65
2022/06/08 00:33:15;;;;;;;3.88;2.08;;;;;;;17.63;71.08;100248.00;4183092;28;20548;-65
2022/06/08 00:35:20;;;;;;;4.32;2.13;;;;;;;17.63;71.16;100244.53;4212269;28;20062;-65
2022/06/08 00:37:24;;;;;;;3.47;1.98;;;;;;;17.60;70.92;100244.59;4204994;28;20028;-65
2022/06/08 00:39:27;;;;;;;4.20;2.03;;;;;;;17.54;70.91;100244.72;4204995;28;20049;-65
2022/06/08 00:41:39;;;;;;;2.95;1.63;;;;;;;17.51;70.99;100234.22;4190792;28;20067;-65
2022/06/08 00:43:42;;;;;;;3.50;1.90;;;;;;;17.45;71.44;100248.38;4205547;28;20071;-66
2022/06/08 00:45:47;;;;;;;2.55;1.92;;;;;;;17.45;71.38;100240.47;4210779;28;20097;-65
2022/06/08 00:47:53;;;;;;;;;;;;;;;17.26;71.82;100242.56;4203087;28;20066;-65
2022/06/08 00:49:59;;;;;;;2.42;1.90;;;;;;;17.28;71.66;100235.50;4207651;28;19974;-65
2022/06/08 00:52:06;;;;;;;2.17;1.92;;;;;;;17.31;71.91;100237.22;4210100;28;20083;-66
2022/06/08 00:54:13;;;;;;;3.33;1.85;;;;;;;17.33;71.82;100236.28;4207233;28;20037;-65
2022/06/08 00:56:20;;;;;;;6.15;1.88;;;;;;;17.29;72.03;100229.38;4205152;28;20074;-65
2022/06/08 00:58:27;;;;;;;2.75;1.58;;;;;;;17.26;71.90;100226.81;4205831;28;20079;-65
2022/06/08 01:00:32;;;;;;;5.82;2.60;;;;;;;17.28;71.83;100227.63;4194599;28;20133;-65
2022/06/08 01:02:36;;;;;;;4.03;2.15;;;;;;;17.26;71.63;100226.81;4204213;28;20194;-64
2022/06/08 01:04:42;;;;;;;8.75;2.00;;;;;;;17.24;71.61;100221.56;4211839;28;20044;-64
2022/06/08 01:06:50;;;;;;;3.17;1.90;;;;;;;17.21;71.80;100221.59;4205111;28;20083;-65
2022/06/08 01:08:55;;;;;;;2.67;1.77;;;;;;;17.22;71.73;100223.34;4209883;28;20087;-64
2022/06/08 01:11:04;;;;;;;2.88;2.10;;;;;;;17.19;71.60;100223.41;4205041;28;20066;-65
2022/06/08 01:13:08;;;;;;;3.20;1.92;;;;;;;17.20;71.59;100224.25;4209311;28;20417;-65
2022/06/08 01:15:12;;;;;;;7.05;2.53;;;;;;;17.21;71.69;100224.22;4207568;28;20595;-64
2022/06/08 01:17:17;;;;;;;3.88;2.08;;;;;;;17.20;71.67;100225.13;4204336;28;20051;-64
2022/06/08 01:19:23;;;;;;;7.38;2.50;;;;;;;17.26;71.36;100226.81;4208626;28;20051;-64
2022/06/08 01:21:47;;;;;;;3.28;2.47;;;;;;;17.27;71.09;100231.13;4193342;28;20047;-64
2022/06/08 01:24:00;;;;;;;2.83;2.45;;;;;;;17.24;71.27;100225.94;4201717;28;20097;-64
2022/06/08 01:26:17;;;;;;;2.47;2.00;;;;;;;17.18;71.25;100226.06;4201753;28;20077;-64
2022/06/08 01:28:28;;;;;;;4.07;2.38;;;;;;;17.09;71.67;100227.06;4206964;28;20036;-64
2022/06/08 01:30:44;;;;;;;4.65;2.28;;;;;;;16.98;72.03;100224.63;4209678;28;20040;-64
2022/06/08 01:33:37;;;;;;;4.20;2.00;;;;;;;16.92;72.12;100224.72;4212186;28;20139;-64
2022/06/08 01:35:54;;;;;;;4.47;2.75;;;;;;;16.89;72.37;100225.66;4210109;28;20076;-64
2022/06/08 01:38:08;;;;;;;3.97;2.70;;;;;;;16.92;72.19;100219.44;4204451;28;20055;-64
2022/06/08 01:40:30;;;;;;;7.53;2.03;;;;;;;16.92;72.31;100216.81;4200811;28;20593;-64
2022/06/08 01:42:46;;;;;;;5.30;2.53;;;;;;;16.94;72.13;100217.69;4206415;28;20040;-64
2022/06/08 01:47:32;;;;;;;6.50;2.80;;;;;;;16.99;71.68;100213.22;4210198;28;20421;-64
2022/06/08 01:50:00;;;;;;;4.18;2.78;;;;;;;16.96;71.77;100212.41;4206834;28;20054;-64
2022/06/08 01:52:16;;;;;;;4.07;2.53;;;;;;;17.00;71.73;100207.06;4206473;28;20040;-65
2022/06/08 01:54:37;;;;;;;4.57;2.80;;;;;;;16.97;71.46;100206.25;4195235;28;20064;-64
2022/06/08 01:56:48;;;;;;;3.50;2.97;;;;;;;16.97;71.76;100212.38;4203598;28;20029;-64
2022/06/08 01:59:09;;;;;;;5.72;3.20;;;;;;;16.92;71.84;100203.69;4205206;28;20559;-64
2022/06/08 02:01:20;;;;;;;6.32;3.45;;;;;;;16.86;71.82;100204.63;4209406;28;20480;-64
2022/06/08 02:03:31;;;;;;;5.05;3.88;;;;;;;16.85;71.94;100197.66;4204372;28;20072;-64
2022/06/08 02:05:43;;;;;;;5.28;4.20;;;;;;;16.86;71.66;100201.16;4205663;28;20337;-64
2022/06/08 02:07:54;;;;;;;9.13;4.43;;;;;;;16.80;71.90;100193.38;4216888;28;20043;-64
2022/06/08 02:10:06;;;;;;;9.13;5.47;;;;;;;16.82;71.74;100196.81;4200847;28;20044;-64
2022/06/08 02:12:11;;;;;;;11.00;4.80;;;;;;;16.88;71.63;100197.66;4202996;28;20464;-65
2022/06/08 02:14:24;;;;;;;7.22;4.30;;;;;;;16.80;71.82;100196.00;4209674;28;20039;-64
2022/06/08 02:16:34;;;;;;;9.82;4.20;;;;;;;16.81;72.17;100198.59;4210520;28;20452;-64
2022/06/08 02:18:43;;;;;;;7.72;5.07;;;;;;;16.81;72.17;100195.13;4204959;28;20032;-64
2022/06/08 02:20:52;;;;;;;6.63;4.25;;;;;;;16.83;72.18;100193.31;4202360;28;20544;-64
2022/06/08 02:23:01;;;;;;;3.40;2.97;;;;;;;16.77;72.57;100190.81;4195942;28;20486;-64
2022/06/08 02:25:12;;;;;;;5.35;4.03;;;;;;;16.77;72.28;100182.94;4184141;28;20502;-64
2022/06/08 02:27:20;;;;;;;6.53;3.47;;;;;;;16.78;72.65;100184.63;4205779;28;20047;-64
2022/06/08 02:29:27;;;;;;;6.88;4.15;;;;;;;16.80;72.22;100185.50;4189271;28;20048;-64
2022/06/08 02:31:35;;;;;;;4.60;3.78;;;;;;;16.78;72.23;100182.00;4211469;28;20044;-64
2022/06/08 02:36:14;;;;;;;10.38;3.95;;;;;;;16.74;72.29;100173.34;4203562;28;20041;-64
2022/06/08 02:38:23;;;;;;;5.60;3.85;;;;;;;16.80;72.18;100169.75;4197116;28;20484;-64
2022/06/08 02:40:33;;;;;;;6.80;4.32;;;;;;;16.87;71.76;100171.38;4205978;28;20517;-64
2022/06/08 02:42:44;;;;;;;8.18;3.58;;;;;;;16.80;71.80;100165.34;4203986;28;20497;-64
2022/06/08 02:44:54;;;;;;;5.75;3.78;;;;;;;16.79;71.93;100157.50;4219929;28;20031;-64
2022/06/08 02:47:05;;;;;;;4.55;3.67;;;;;;;16.79;71.66;100166.22;4205594;28;20036;-64
2022/06/08 02:49:11;;;;;;;6.88;4.40;;;;;;;16.79;71.93;100165.38;4188706;28;20137;-64
2022/06/08 02:51:14;;;;;;;7.70;4.45;;;;;;;16.79;72.18;100154.88;4199868;28;20086;-64
2022/06/08 02:53:56;;;;;;;6.65;4.47;;;;;;;16.75;72.33;100168.06;4200740;28;20040;-64
2022/06/08 02:56:10;;;;;;;4.88;3.50;;;;;;;16.73;72.38;100159.34;4207503;28;20050;-64
2022/06/08 02:58:18;;;;;;;7.28;3.80;;;;;;;16.75;72.48;100165.44;4204260;28;20448;-64
2022/06/08 03:00:30;;;;;;;7.18;3.55;;;;;;;16.77;72.58;100157.53;4206293;28;20109;-64
2022/06/08 03:02:37;;;;;;;7.22;4.22;;;;;;;16.76;72.70;100150.53;4187776;28;20048;-64
2022/06/08 03:04:46;;;;;;;7.20;3.60;;;;;;;16.84;72.11;100155.69;4209415;28;20036;-64
2022/06/08 03:06:54;;;;;;;5.82;3.50;;;;;;;16.80;72.51;100154.84;4195442;28;20072;-64
2022/06/08 03:08:59;;;;;;;5.65;3.30;;;;;;;16.78;72.46;100154.03;4202773;28;20578;-64
2022/06/08 03:11:07;;;;;;;7.18;3.58;;;;;;;16.80;72.50;100162.72;4207237;28;20044;-64
2022/06/08 03:13:17;;;;;;;6.93;3.75;;;;;;;16.82;72.61;100149.56;4209321;28;20050;-64
2022/06/08 03:15:24;;;;;;;9.75;3.08;;;;;;;16.80;72.94;100148.75;4205125;28;20055;-64
2022/06/08 03:17:33;;;;;;;6.78;3.58;;;;;;;16.82;72.73;100149.56;4210232;28;20040;-64
2022/06/08 03:19:38;;;;;;;7.57;3.65;;;;;;;16.93;72.33;100143.28;4196910;28;20392;-64
2022/06/08 03:21:42;;;;;;;5.00;3.13;;;;;;;16.85;72.29;100149.53;4184954;28;20142;-64
2022/06/08 03:23:46;;;;;;;6.93;2.90;;;;;;;16.82;72.66;100144.31;4208892;28;20036;-64
2022/06/08 03:25:51;;;;;;;10.10;3.42;;;;;;;16.82;72.68;100142.59;4210465;28;20470;-64
2022/06/08 03:27:56;;;;;;;3.43;2.70;;;;;;;16.82;72.57;100144.31;4192639;28;20047;-64
2022/06/08 03:30:00;;;;;;;5.82;2.78;;;;;;;16.82;72.45;100145.22;4194558;28;20033;-64
2022/06/08 03:32:10;;;;;;;5.22;2.58;;;;;;;16.77;72.33;100141.78;4211206;28;20044;-64
2022/06/08 03:34:14;;;;;;;5.55;2.88;;;;;;;16.79;72.42;100139.13;4197458;28;20040;-64
2022/06/08 03:36:16;;;;;;;6.60;2.92;;;;;;;16.77;72.85;100149.66;4192077;28;20041;-64
2022/06/08 03:38:19;;;;;;;4.63;3.13;;;;;;;16.80;72.56;100146.97;4205342;28;20067;-64
2022/06/08 03:40:24;;;;;;;5.85;3.20;;;;;;;16.79;72.62;100153.09;4205233;28;20040;-64
2022/06/08 03:42:27;;;;;;;5.25;3.10;;;;;;;16.81;72.62;100150.50;4210040;28;20042;-64
2022/06/08 03:44:31;;;;;;;8.02;3.15;;;;;;;16.81;72.90;100147.88;4204884;28;20572;-64
2022/06/08 03:46:39;;;;;;;5.65;2.70;;;;;;;16.81;72.81;100153.97;4196885;28;20144;-64
2022/06/08 03:48:44;;;;;;;5.65;3.17;;;;;;;16.83;72.71;100143.44;4205696;28;20032;-63
2022/06/08 03:50:50;;;;;;;6.90;3.13;;;;;;;16.82;72.47;100142.59;4184269;28;20488;-64
2022/06/08 03:52:58;;;;;;;7.03;2.80;;;;;;;16.85;72.56;100139.91;4188729;28;20071;-64
2022/06/08 03:55:04;;;;;;;4.20;3.17;;;;;;;16.93;72.42;100139.78;4203880;28;20040;-64
2022/06/08 03:57:09;;;;;;;4.10;3.08;;;;;;;16.90;72.01;100143.34;4211183;28;20039;-64
2022/06/08 03:59:14;;;;;;;3.58;2.63;;;;;;;16.86;72.45;100140.75;4205943;28;20043;-64
2022/06/08 04:01:18;;;;;;;6.45;2.70;;;;;;;16.87;72.47;100147.75;4197858;28;20553;-64
2022/06/08 04:03:27;;;;;;;5.78;2.83;;;;;;;17.01;71.65;100134.41;4204983;28;20040;-65
2022/06/08 04:05:30;;;;;;;6.45;3.40;;;;;;;17.05;71.51;100136.94;4206522;28;20492;-64
2022/06/08 04:07:35;;;;;;;4.68;2.75;;;;;;;16.97;71.87;100132.72;4213421;28;20040;-64
2022/06/08 04:09:38;;;;;;;4.15;2.95;;;;;;;16.94;71.85;100136.28;4191258;28;20414;-64
2022/06/08 04:11:41;;;;;;;9.57;4.10;;;;;;;16.96;71.92;100139.75;4204781;28;20532;-65
2022/06/08 04:13:45;;;;;;;4.47;2.15;;;;;;;16.91;72.28;100145.06;4200472;28;20040;-65
2022/06/08 04:15:53;;;;;;;3.13;2.58;;;;;;;16.90;72.21;100143.34;4196253;28;20036;-65
2022/06/08 04:18:05;;;;;;;4.60;2.40;;;;;;;16.99;72.11;100141.44;4205071;28;20094;-65
2022/06/08 04:20:10;;;;;;;3.92;2.60;;;;;;;17.01;71.29;100140.53;4205970;28;20029;-65
2022/06/08 04:22:13;;;;;;;4.28;2.65;;;;;;;16.95;71.51;100151.13;4187493;28;20129;-65
2022/06/08 04:24:18;;;;;;;10.07;3.10;;;;;;;16.99;71.46;100137.06;4211196;28;20040;-65
2022/06/08 04:26:27;;;;;;;7.57;3.28;;;;;;;17.02;70.75;100147.50;4199135;28;20075;-64
2022/06/08 04:28:39;;;;;;;7.15;3.65;;;;;;;16.86;71.33;100148.63;4217323;28;20109;-65
2022/06/08 04:30:47;;;;;;;6.57;3.20;;;;;;;16.77;71.00;100156.66;4214231;28;20032;-65
2022/06/08 04:32:51;;;;;;;5.97;3.00;;;;;;;16.79;71.20;100149.63;4207602;28;20032;-65
2022/06/08 04:34:57;;;;;;;8.15;3.65;;;;;;;16.85;70.93;100154.78;4206809;28;20282;-65
2022/06/08 04:37:00;;;;;;;5.53;2.90;;;;;;;16.87;70.69;100153.88;4206030;28;20480;-65
2022/06/08 04:39:15;;;;;;;5.57;2.95;;;;;;;16.75;71.25;100154.94;4197296;28;20056;-64
2022/06/08 04:41:32;;;;;;;10.07;3.20;;;;;;;16.72;71.29;100147.09;4207674;28;20032;-65
2022/06/08 04:43:36;;;;;;;5.22;3.25;;;;;;;16.69;70.70;100148.91;4197296;28;20044;-65
2022/06/08 04:45:40;;;;;;;11.88;3.95;;;;;;;16.63;70.93;100155.13;4207432;28;20039;-65
2022/06/08 04:47:45;;;;;;;3.88;2.70;;;;;;;16.61;71.14;100151.66;4214500;28;20051;-65
2022/06/08 04:49:49;;;;;;;4.20;3.28;;;;;;;16.72;71.07;100146.25;4214816;28;20050;-65
2022/06/08 04:51:54;;;;;;;6.47;3.35;;;;;;;16.80;70.66;100138.25;4214378;28;20044;-64
2022/06/08 04:53:59;;;;;;;7.93;3.30;;;;;;;16.87;70.24;100137.25;4212544;28;20097;-65
2022/06/08 04:56:05;;;;;;;5.53;3.30;;;;;;;16.84;70.38;100138.16;4221645;28;20036;-65
2022/06/08 04:58:10;;;;;;;4.55;2.30;;;;;;;16.88;70.51;100139.00;4211437;28;20555;-65
2022/06/08 05:00:18;;;;;;;6.45;3.00;;;;;;;16.99;70.76;100137.06;4214695;28;20036;-65
2022/06/08 05:04:40;;;;;;;6.38;3.65;;;;;;;17.04;70.50;100144.84;4197625;28;20056;-65
2022/06/08 05:06:43;;;;;;;3.60;2.55;;;;;;;17.06;69.90;100140.44;4197351;28;20098;-65
2022/06/08 05:08:47;;;;;;;4.88;2.67;;;;;;;17.12;70.03;100139.47;4196676;28;20040;-65
2022/06/08 05:10:57;;;;;;;4.78;2.85;;;;;;;17.08;69.81;100139.53;4206050;28;20030;-66
2022/06/08 05:13:03;;;;;;;6.90;2.55;;;;;;;17.17;69.29;100142.88;4193355;28;20047;-65
2022/06/08 05:15:11;;;;;;;6.43;2.75;;;;;;;17.18;69.10;100139.38;4180913;28;20102;-65
2022/06/08 05:17:14;;;;;;;5.63;2.60;;;;;;;17.22;68.90;100135.78;4204076;28;20036;-65
2022/06/08 05:19:18;;;;;;;4.90;2.67;;;;;;;17.22;67.90;100133.16;4214183;28;20093;-65
2022/06/08 05:21:21;;;;;;;8.50;3.30;;;;;;;17.12;68.53;100132.47;4214274;28;20102;-65
2022/06/08 05:23:26;;;;;;;;;;;;;;;16.90;69.41;100142.47;4213214;28;20112;-65
2022/06/08 05:25:35;;;;;;;6.75;2.83;;;;;;;17.01;69.05;100135.28;4205962;28;19928;-65
2022/06/08 05:27:39;;;;;;;6.65;2.85;;;;;;;16.91;68.80;100136.34;4208201;28;20481;-65
2022/06/08 05:29:42;;;;;;;8.23;2.35;;;;;;;16.86;69.15;100143.38;4214081;28;20123;-65
2022/06/08 05:31:45;;;;;;;9.60;2.60;;;;;;;16.95;69.03;100139.78;4212209;28;20052;-65
2022/06/08 05:33:48;;;;;;;12.25;2.42;;;;;;;16.94;68.70;100133.66;4211585;28;20043;-65
2022/06/08 05:35:55;;;;;;;2.67;1.92;;;;;;;16.93;69.04;100137.16;4198364;28;20375;-65
2022/06/08 05:37:58;;;;;;;6.87;2.70;;;;;;;16.98;69.00;100130.09;4205532;28;20039;-65
2022/06/08 05:40:04;;;;;;;5.13;2.38;;;;;;;16.95;68.75;100135.38;4188783;28;20032;-66
2022/06/08 05:42:10;;;;;;;4.30;1.90;;;;;;;16.97;69.15;100135.34;4196910;28;20490;-65
2022/06/08 05:44:20;;;;;;;6.47;2.40;;;;;;;17.06;68.72;100140.44;4214166;28;20044;-65
2022/06/08 05:46:26;;;;;;;5.28;1.90;;;;;;;16.93;68.37;100129.28;4213524;28;20046;-65
2022/06/08 05:48:35;;;;;;;5.75;2.15;;;;;;;17.01;67.89;100130.03;4197162;28;20044;-65
2022/06/08 05:50:43;;;;;;;6.53;1.52;;;;;;;17.00;68.37;100125.66;4197663;28;20037;-66
2022/06/08 05:52:50;;;;;;;5.47;2.08;;;;;;;16.99;68.13;100126.56;4208468;28;20123;-65
2022/06/08 05:54:53;;;;;;;6.47;2.13;;;;;;;17.01;68.42;100127.41;4195848;28;20075;-66
2022/06/08 05:56:56;;;;;;;5.38;1.95;;;;;;;17.05;68.13;100123.81;4198622;28;20127;-67
2022/06/08 05:59:05;;;;;;;7.47;2.20;;;;;;;17.09;68.30;100120.25;4213762;28;20489;-67
2022/06/08 06:01:11;;;;;;;4.63;1.90;;;;;;;17.07;68.38;100121.19;4213611;28;20066;-67
2022/06/08 06:03:15;;;;;;;10.35;6.85;;;;;;;17.21;69.96;100118.28;4212009;28;20097;-64
2022/06/08 06:05:22;;;;;;;10.68;6.43;;;;;;;17.49;70.12;100112.50;4190142;28;20170;-66
2022/06/08 06:07:26;;;;;;;10.13;4.47;;;;;;;17.65;69.18;100113.91;4196429;28;20415;-66
2022/06/08 06:09:46;;;;;;;7.75;3.20;;;;;;;17.82;67.26;100112.72;4180288;28;20041;-66
2022/06/08 06:11:50;;;;;;;8.90;3.15;;;;;;;17.87;67.55;100116.09;4206966;28;20093;-66
2022/06/08 06:13:55;;;;;;;4.90;2.22;;;;;;;17.92;67.46;100116.91;4201846;28;20120;-66
2022/06/08 06:16:01;;;;;;;6.53;2.60;;;;;;;18.05;67.03;100117.53;4203547;28;20033;-66
2022/06/08 06:18:06;;;;;;;5.63;2.28;;;;;;;18.10;65.59;100113.00;4209082;28;20452;-66
2022/06/08 06:20:12;;;;;;;7.90;2.80;;;;;;;18.11;67.46;100109.47;4213393;28;20036;-64
2022/06/08 06:22:27;;;;;;;4.47;2.00;;;;;;;18.14;65.80;100105.00;4213216;28;20409;-65
2022/06/08 06:24:39;;;;;;;6.97;2.25;;;;;;;18.21;65.42;100110.13;4213256;28;20048;-64
2022/06/08 06:26:52;;;;;;;6.78;2.45;;;;;;;18.13;65.15;100119.03;4214172;28;20043;-64
2022/06/08 06:28:55;;;;;;;12.25;2.20;;;;;;;18.22;64.63;100114.50;4214374;28;20032;-64
2022/06/08 06:31:23;;;;;;;7.15;3.40;;;;;;;18.21;65.14;100111.00;4207659;28;20036;-64
2022/06/08 06:33:44;;;;;;;9.52;2.70;;;;;;;18.39;63.68;100114.09;4181466;28;20045;-63
2022/06/08 06:35:47;;;;;;;5.43;2.38;;;;;;;18.41;63.13;100114.91;4204539;28;20033;-63
2022/06/08 06:37:51;;;;;;;7.00;2.45;;;;;;;18.37;63.33;100114.16;4212801;28;20126;-63
2022/06/08 06:39:55;;;;;;;5.03;2.35;;;;;;;18.53;63.06;100108.50;4213046;28;20040;-63
2022/06/08 06:42:02;;;;;;;5.68;2.05;;;;;;;18.54;63.57;100110.22;4212944;28;20044;-64
2022/06/08 06:44:11;;;;;;;3.80;2.00;;;;;;;18.51;63.97;100108.53;4213182;28;20485;-65
2022/06/08 06:46:31;;;;;;;12.38;2.05;;;;;;;18.57;63.17;100103.09;4211876;28;20613;-65
2022/06/08 06:48:53;;;;;;;4.93;2.08;;;;;;;18.52;62.99;100104.16;4204475;28;20120;-66
2022/06/08 06:50:56;;;;;;;6.07;2.15;;;;;;;18.70;62.62;100103.69;4196254;28;20051;-64
2022/06/08 06:53:00;;;;;;;9.35;1.75;;;;;;;18.76;62.35;100094.75;4190865;28;20406;-67
2022/06/08 06:55:20;;;;;;;2.58;1.45;;;;;;;18.83;62.61;100086.66;4196540;28;20036;-67
2022/06/08 06:57:23;;;;;;;8.27;1.73;;;;;;;18.89;62.67;100087.44;4196959;28;20040;-66
2022/06/08 06:59:28;;;;;;;11.02;2.30;;;;;;;19.12;61.86;100089.47;4179447;28;20090;-66
2022/06/08 07:01:34;;;;;;;6.15;1.73;;;;;;;19.10;61.75;100092.16;4204935;28;20047;-66
2022/06/08 07:03:37;;;;;;;6.68;2.03;;;;;;;19.16;61.87;100086.72;4205316;28;20127;-66
2022/06/08 07:05:40;;;;;;;6.75;1.67;;;;;;;19.20;62.02;100082.19;4212700;28;20089;-67
2022/06/08 07:07:44;;;;;;;5.82;1.65;;;;;;;19.32;62.16;100081.03;4195811;28;20090;-67
2022/06/08 07:09:47;;;;;;;5.82;2.20;;;;;;;19.59;60.01;100073.22;4212884;28;20130;-67
2022/06/08 07:11:50;;;;;;;6.47;1.92;;;;;;;19.36;61.36;100069.47;4211981;28;20039;-66
2022/06/08 07:13:59;;;;;;;12.05;2.45;;;;;;;19.50;61.06;100063.81;4212616;28;20040;-66
2022/06/08 07:16:02;;;;;;;5.25;1.83;;;;;;;19.43;60.48;100062.25;4211478;28;20032;-67
2022/06/08 07:18:07;;;;;;;6.75;1.95;;;;;;;19.61;58.14;100059.09;4212047;28;20425;-68
2022/06/08 07:20:12;;;;;;;5.80;1.52;;;;;;;19.52;58.06;100061.97;4212278;28;20565;-68
2022/06/08 07:22:15;;;;;;;;;;;;;;;19.61;57.82;100055.56;4204668;28;20044;-68
2022/06/08 07:24:20;;;;;;;4.90;1.77;;;;;;;19.77;56.84;100050.69;4210605;28;19959;-69
2022/06/08 07:26:25;;;;;;;5.38;1.35;;;;;;;19.92;57.09;100054.66;4211277;28;20039;-69
2022/06/08 07:28:29;;;;;;;6.95;1.85;;;;;;;19.93;57.28;100046.75;4211053;28;20036;-68
2022/06/08 07:30:32;;;;;;;2.53;1.23;;;;;;;19.95;57.71;100051.97;4207509;28;20046;-68
2022/06/08 07:32:36;;;;;;;8.93;2.22;;;;;;;19.88;57.27;100038.94;4213411;28;20359;-69
2022/06/08 07:34:40;;;;;;;11.13;1.48;;;;;;;19.76;56.87;100043.72;4212558;28;20093;-68
2022/06/08 07:36:44;;;;;;;3.97;1.27;;;;;;;19.72;57.39;100048.22;4213385;28;20035;-68
2022/06/08 07:38:47;;;;;;;5.13;1.90;;;;;;;19.83;56.90;100042.63;4212522;28;20068;-70
2022/06/08 07:40:52;;;;;;;5.15;1.75;;;;;;;19.88;56.62;100040.72;4212160;28;20040;-68
2022/06/08 07:42:55;;;;;;;5.90;1.85;;;;;;;19.64;56.79;100043.19;4209068;28;20032;-70
2022/06/08 07:44:58;;;;;;;5.88;1.50;;;;;;;19.54;57.96;100050.50;4211212;28;20043;-69
2022/06/08 07:47:01;;;;;;;6.68;1.77;;;;;;;19.46;57.44;100047.19;4212609;28;20038;-73
2022/06/08 07:51:25;;;;;;;4.38;1.27;;;;;;;19.45;58.34;100049.88;4196978;28;20418;-74
2022/06/08 07:53:28;;;;;;;3.90;1.45;;;;;;;19.40;58.81;100044.75;4212317;28;20147;-73
2022/06/08 07:55:31;;;;;;;5.90;1.60;;;;;;;19.38;58.19;100037.78;4206803;28;20460;-71
2022/06/08 07:57:35;;;;;;;10.40;2.22;;;;;;;19.36;58.34;100044.00;4213176;28;20501;-72
2022/06/08 07:59:38;;;;;;;6.85;1.77;;;;;;;19.46;59.07;100041.06;4212114;28;20051;-74
2022/06/08 08:01:41;;;;;;;6.00;2.00;;;;;;;19.40;58.53;100036.00;4213212;28;20115;-72
2022/06/08 08:03:44;;;;;;;9.23;2.30;;;;;;;19.43;59.23;100036.75;4212174;28;20048;-74
2022/06/08 08:05:51;;;;;;;3.88;1.40;;;;;;;19.48;59.23;100042.75;4210008;28;20051;-75
2022/06/08 08:07:55;;;;;;;3.80;1.40;;;;;;;19.54;59.48;100032.03;4206853;28;20071;-74
2022/06/08 08:09:58;;;;;;;3.33;1.60;;;;;;;19.62;59.14;100030.94;4212347;28;20085;-72
2022/06/08 08:12:02;;;;;;;9.38;2.10;;;;;;;19.73;59.16;100022.69;4210564;28;21259;-72
2022/06/08 08:14:05;;;;;;;8.13;1.98;;;;;;;19.79;58.17;100023.41;4205995;28;20127;-72
2022/06/08 08:16:08;;;;;;;7.18;1.85;;;;;;;19.76;58.32;100023.47;4198822;28;20443;-72
2022/06/08 08:18:12;;;;;;;4.10;1.88;;;;;;;19.89;58.29;100024.00;4209389;28;20044;-72
2022/06/08 08:20:18;;;;;;;4.55;1.60;;;;;;;19.92;57.43;100023.91;4212226;28;20052;-72
2022/06/08 08:22:21;;;;;;;8.38;2.05;;;;;;;19.92;57.14;100021.25;4195439;28;20469;-72
2022/06/08 08:24:26;;;;;;;4.90;1.95;;;;;;;19.94;57.15;100015.94;4205958;28;20460;-73
2022/06/08 08:26:30;;;;;;;7.13;1.95;;;;;;;20.01;57.57;100017.47;4202356;28;20040;-73
2022/06/08 08:28:33;;;;;;;10.85;2.05;;;;;;;19.96;58.58;100011.44;4212148;28;20066;-73
2022/06/08 08:30:36;;;;;;;6.00;1.70;;;;;;;20.10;57.86;100006.59;4212304;28;20047;-72
2022/06/08 08:32:40;;;;;;;8.77;2.20;;;;;;;20.29;57.37;100004.22;4207681;28;20033;-72
2022/06/08 08:34:43;;;;;;;4.03;1.30;;;;;;;20.43;56.27;99997.59;4216317;28;20503;-73
2022/06/08 08:36:46;;;;;;;7.78;1.92;;;;;;;20.54;55.85;100000.75;4212890;28;20036;-72
2022/06/08 08:38:49;;;;;;;8.25;2.00;;;;;;;20.60;55.27;100000.53;4208513;28;20127;-72
2022/06/08 08:40:56;;;;;;;4.05;1.70;;;;;;;20.69;54.74;99994.09;4213605;28;20497;-72
2022/06/08 08:42:59;;;;;;;4.75;1.70;;;;;;;20.77;55.28;99991.22;4205341;28;20620;-71
2022/06/08 08:45:06;;;;;;;9.30;2.25;;;;;;;20.83;54.53;99988.34;4210160;28;20036;-70
2022/06/08 08:47:16;;;;;;;5.60;1.70;;;;;;;20.86;54.68;99985.59;4211975;28;20040;-71
2022/06/08 08:49:23;;;;;;;5.18;1.90;;;;;;;21.08;54.09;99981.25;4214302;28;20040;-72
2022/06/08 08:51:32;;;;;;;7.93;2.15;;;;;;;21.12;54.44;99981.13;4214473;28;20646;-71
2022/06/08 08:53:47;;;;;;;6.03;1.60;;;;;;;21.05;53.54;99976.06;4209758;28;20419;-72
2022/06/08 08:55:53;;;;;;;7.18;1.83;;;;;;;21.15;52.59;99973.09;4206609;28;20044;-72
2022/06/08 08:58:02;;;;;;;5.30;1.75;;;;;;;21.22;52.94;99971.94;4205758;28;20069;-72
2022/06/08 09:00:18;;;;;;;3.88;1.70;;;;;;;21.34;52.85;99962.69;4207181;28;20044;-71
2022/06/08 09:04:50;;;;;;;5.47;1.58;;;;;;;21.32;52.19;99957.44;4203065;28;20100;-72
2022/06/08 09:06:53;;;;;;;5.78;1.88;;;;;;;21.40;52.18;99950.06;4212949;28;20382;-73
2022/06/08 09:09:00;;;;;;;3.83;1.35;;;;;;;21.59;50.74;99952.88;4211983;28;20036;-72
2022/06/08 09:11:10;;;;;;;2.28;1.27;;;;;;;21.59;50.99;99947.59;4212309;28;20058;-72
2022/06/08 09:13:26;;;;;;;3.35;1.00;;;;;;;21.75;51.67;99944.34;4211278;28;20086;-72
2022/06/08 09:15:46;;;;;;;5.45;1.40;;;;;;;21.77;51.25;99943.34;4211561;28;20123;-72
2022/06/08 09:17:56;;;;;;;6.35;1.38;;;;;;;21.82;50.19;99940.53;4210516;28;20054;-72
2022/06/08 09:20:00;;;;;;;3.25;1.20;;;;;;;22.03;50.10;99935.25;4208627;28;20068;-72
2022/06/08 09:22:26;;;;;;;6.78;1.90;;;;;;;22.05;50.61;99931.63;4206059;28;20549;-71
2022/06/08 09:24:34;;;;;;;6.90;1.90;;;;;;;22.09;50.09;99937.66;4211404;28;20052;-70
2022/06/08 09:26:40;;;;;;;6.78;2.30;;;;;;;22.07;49.15;99931.56;4207355;28;20048;-69
2022/06/08 09:28:57;;;;;;;9.13;1.73;;;;;;;21.89;50.06;99925.22;4192567;28;20053;-72
2022/06/08 09:31:00;;;;;;;3.90;1.30;;;;;;;21.94;50.90;99924.13;4208939;28;20033;-72
2022/06/08 09:33:17;;;;;;;4.20;1.67;;;;;;;22.06;49.97;99927.19;4202824;28;20457;-72
2022/06/08 09:35:27;;;;;;;3.20;0.93;;;;;;;22.12;51.20;99926.91;4210050;28;20556;-73
2022/06/08 09:37:30;;;;;;;7.20;1.60;;;;;;;22.04;48.97;99923.75;4210891;28;20047;-74
2022/06/08 09:39:35;;;;;;;4.40;1.58;;;;;;;22.06;48.36;99916.59;4210905;28;20072;-69
2022/06/08 09:41:44;;;;;;;6.40;2.05;;;;;;;22.38;49.04;99922.34;4210044;28;20040;-67
2022/06/08 09:44:02;;;;;;;4.68;1.25;;;;;;;22.55;47.96;99903.91;4212042;28;20077;-73
2022/06/08 09:46:09;;;;;;;4.85;1.40;;;;;;;22.58;47.74;99902.94;4212070;28;20448;-74
2022/06/08 09:53:34;;;;;;;3.58;1.20;;;;;;;22.89;46.43;99904.19;4210481;28;20036;-73
2022/06/08 09:55:50;;;;;;;4.43;1.20;;;;;;;22.94;46.43;99908.34;4203978;28;20067;-73
2022/06/08 09:58:06;;;;;;;3.53;1.13;;;;;;;22.98;45.70;99903.75;4208266;28;20131;-74
2022/06/08 10:00:29;;;;;;;3.85;1.27;;;;;;;22.98;45.39;99896.69;4211475;28;20040;-74
2022/06/08 10:02:46;;;;;;;6.90;2.00;;;;;;;22.76;45.70;99898.59;4189188;28;20048;-74
2022/06/08 10:05:03;;;;;;;3.95;1.33;;;;;;;22.60;46.27;99891.31;4207723;28;20582;-74
2022/06/08 10:07:16;;;;;;;8.07;1.88;;;;;;;22.51;47.63;99886.44;4193441;28;20581;-74
2022/06/08 10:09:25;;;;;;;3.33;0.98;;;;;;;22.33;47.53;99888.13;4208841;28;20397;-74
2022/06/08 10:11:36;;;;;;;3.53;1.10;;;;;;;22.40;47.93;99884.28;4211320;28;20034;-74